Time;durP1;ratioP1;P1;durP2;ratioP2;P2;SDS_P1;SDS_P2;PMS_P1;PMS_P2;Temp;Humidity;BMP_temperature;BMP_pressure;BME280_temperature;BME280_humidity;BME280_pressure;Samples;Min_cycle;Max_cycle;Signal;HPM_P1;HPM_P2
2024/01/21 00:00:28;;;;;;;6.95;3.25;;;;;;;-3.18;43.07;102322.63;4971370;28;20133;-69
2024/01/21 00:02:53;;;;;;;5.60;2.35;;;;;;;-3.02;43.11;102313.91;4945386;28;20121;-67
2024/01/21 00:05:19;;;;;;;5.00;2.63;;;;;;;-3.52;44.01;102319.59;4943792;28;20508;-69
2024/01/21 00:07:44;;;;;;;5.60;3.30;;;;;;;-2.93;43.18;102321.94;4940335;28;20046;-69
2024/01/21 00:10:10;;;;;;;6.03;3.30;;;;;;;-3.00;43.46;102309.72;4944145;28;20058;-68
2024/01/21 00:12:36;;;;;;;4.70;2.60;;;;;;;-3.30;43.39;102317.91;4972249;28;20036;-70
2024/01/21 00:15:03;;;;;;;7.57;3.92;;;;;;;-3.17;43.42;102303.94;4942170;28;20050;-70
2024/01/21 00:17:29;;;;;;;6.25;2.78;;;;;;;-2.75;42.78;102309.00;4961061;28;20027;-70
2024/01/21 00:19:55;;;;;;;7.00;2.75;;;;;;;-2.84;42.76;102302.69;4946570;28;20039;-68
2024/01/21 00:22:21;;;;;;;7.47;3.85;;;;;;;-3.07;43.33;102303.50;4945583;28;20038;-67
2024/01/21 00:24:46;;;;;;;10.05;2.53;;;;;;;-2.80;42.52;102301.13;4939785;28;20047;-67
2024/01/21 00:27:12;;;;;;;7.05;2.67;;;;;;;-2.98;42.42;102291.06;4976486;28;20089;-69
2024/01/21 00:29:37;;;;;;;8.07;2.58;;;;;;;-2.94;42.56;102284.38;4943661;28;20424;-69
2024/01/21 00:32:03;;;;;;;7.00;3.03;;;;;;;-2.75;41.99;102294.50;4975350;28;20035;-70
2024/01/21 00:34:29;;;;;;;9.13;3.13;;;;;;;-2.90;42.56;102283.66;4936703;28;20458;-70
2024/01/21 00:36:54;;;;;;;6.43;3.30;;;;;;;-3.20;42.99;102276.56;4946682;28;20034;-70
2024/01/21 00:39:20;;;;;;;5.85;2.83;;;;;;;-2.98;42.12;102269.69;4942264;28;20050;-70
2024/01/21 00:41:45;;;;;;;5.45;3.03;;;;;;;-2.89;41.99;102264.97;4937342;28;21473;-69
2024/01/21 00:44:11;;;;;;;6.32;2.75;;;;;;;-3.19;42.40;102264.63;4974757;28;20062;-68
2024/01/21 00:46:39;;;;;;;8.43;3.03;;;;;;;-3.47;43.21;102269.53;4938164;28;20042;-68
2024/01/21 00:49:05;;;;;;;5.90;2.30;;;;;;;-3.11;42.71;102258.16;4974457;28;20039;-71
2024/01/21 00:51:31;;;;;;;6.55;3.22;;;;;;;-3.26;42.62;102263.53;4938995;28;20035;-69
2024/01/21 00:53:56;;;;;;;6.80;2.83;;;;;;;-3.09;42.00;102259.94;4945295;28;20051;-70
2024/01/21 00:56:22;;;;;;;5.95;3.10;;;;;;;-3.11;41.95;102258.16;4944358;28;20122;-71
2024/01/21 00:58:47;;;;;;;6.28;2.85;;;;;;;-3.00;41.90;102250.91;4939826;28;20124;-71
2024/01/21 01:01:13;;;;;;;5.35;2.47;;;;;;;-3.16;42.15;102245.19;4923876;28;20134;-70
2024/01/21 01:03:38;;;;;;;6.45;2.25;;;;;;;-2.91;41.65;102247.00;4922770;28;20466;-68
2024/01/21 01:06:05;;;;;;;5.95;2.05;;;;;;;-3.04;41.87;102249.88;4921216;28;20039;-70
2024/01/21 01:08:30;;;;;;;6.18;2.53;;;;;;;-2.90;41.40;102248.72;4933318;28;20093;-68
2024/01/21 01:10:56;;;;;;;6.55;2.55;;;;;;;-2.61;40.38;102240.38;4920600;28;20083;-68
2024/01/21 01:13:21;;;;;;;7.50;3.17;;;;;;;-2.65;40.21;102240.28;4916096;28;20043;-70
2024/01/21 01:15:47;;;;;;;4.55;2.13;;;;;;;-2.78;40.62;102232.97;4913927;28;20039;-69
2024/01/21 01:18:14;;;;;;;8.35;2.60;;;;;;;-2.56;39.38;102236.28;4922972;28;20584;-69
2024/01/21 01:20:40;;;;;;;8.27;2.40;;;;;;;-2.77;40.02;102229.59;4917193;28;20504;-70
2024/01/21 01:23:05;;;;;;;6.30;2.88;;;;;;;-2.38;39.61;102223.28;4920699;28;20054;-69
2024/01/21 01:25:31;;;;;;;3.28;1.90;;;;;;;-2.94;39.70;102222.97;4922116;28;20035;-72
2024/01/21 01:27:57;;;;;;;3.25;1.90;;;;;;;-2.79;39.69;102220.13;4926622;28;20036;-71
2024/01/21 01:30:22;;;;;;;4.43;1.92;;;;;;;-2.75;39.96;102227.97;4956726;28;20046;-72
2024/01/21 01:32:48;;;;;;;6.43;2.28;;;;;;;-2.59;39.93;102225.97;4926124;28;20590;-72
2024/01/21 01:35:13;;;;;;;3.75;2.47;;;;;;;-2.68;39.98;102229.91;4924860;28;20042;-72
2024/01/21 01:37:39;;;;;;;2.85;1.55;;;;;;;-2.40;39.39;102223.25;4925182;28;20585;-72
2024/01/21 01:40:06;;;;;;;3.47;1.70;;;;;;;-2.48;39.02;102216.97;4955492;28;20043;-71
2024/01/21 01:42:32;;;;;;;7.75;2.10;;;;;;;-2.67;39.07;102218.88;4925613;28;20034;-73
2024/01/21 01:44:59;;;;;;;6.18;2.47;;;;;;;-2.89;39.41;102221.47;4923362;28;20042;-73
2024/01/21 01:47:24;;;;;;;4.65;2.22;;;;;;;-2.96;38.85;102210.13;4944959;28;20038;-73
2024/01/21 01:49:52;;;;;;;4.65;1.75;;;;;;;-2.47;39.17;102219.59;4918125;28;21228;-72
2024/01/21 01:52:17;;;;;;;4.32;1.88;;;;;;;-2.81;39.21;102212.38;4926955;28;20039;-72
2024/01/21 01:54:46;;;;;;;4.57;1.98;;;;;;;-2.34;38.35;102209.78;4933015;28;20090;-72
2024/01/21 01:57:17;;;;;;;5.65;1.88;;;;;;;-2.28;38.50;102205.72;4907424;28;20307;-70
2024/01/21 01:59:43;;;;;;;4.75;1.75;;;;;;;-2.52;38.25;102200.63;4857934;28;20855;-71
2024/01/21 02:02:10;;;;;;;5.35;1.95;;;;;;;-2.38;38.24;102192.56;4837675;28;20038;-71
2024/01/21 02:04:36;;;;;;;4.30;1.50;;;;;;;-2.60;38.84;102196.03;4838118;28;20330;-71
2024/01/21 02:07:02;;;;;;;4.13;1.65;;;;;;;-2.75;39.26;102192.13;4876037;28;20637;-71
2024/01/21 02:09:28;;;;;;;6.05;2.30;;;;;;;-2.84;39.27;102179.00;4849365;28;20336;-70
2024/01/21 02:11:54;;;;;;;4.93;1.42;;;;;;;-2.52;38.82;102174.16;4844433;28;20196;-70
2024/01/21 02:14:20;;;;;;;6.88;2.33;;;;;;;-2.42;38.75;102158.31;4870007;28;20061;-70
2024/01/21 02:16:45;;;;;;;5.35;1.95;;;;;;;-3.09;39.55;102155.06;4969682;28;20031;-71
2024/01/21 02:19:25;;;;;;;4.82;1.88;;;;;;;-2.68;39.17;102155.69;4943331;28;20066;-71
2024/01/21 02:21:50;;;;;;;2.45;1.15;;;;;;;-2.65;38.54;102131.88;4946841;28;20045;-70
2024/01/21 02:24:16;;;;;;;5.65;2.20;;;;;;;-3.04;38.38;102129.66;4943866;28;20043;-71
2024/01/21 02:26:41;;;;;;;3.80;1.52;;;;;;;-2.49;37.85;102131.63;4939189;28;20031;-70
2024/01/21 02:29:07;;;;;;;3.38;1.50;;;;;;;-2.64;38.38;102134.50;4940998;28;20039;-70
2024/01/21 02:31:32;;;;;;;2.53;1.27;;;;;;;-2.48;37.93;102119.69;4937001;28;20114;-69
2024/01/21 02:33:57;;;;;;;3.70;1.40;;;;;;;-2.10;37.15;102114.97;4933430;28;20030;-68
2024/01/21 02:36:23;;;;;;;4.70;1.38;;;;;;;-2.45;37.18;102099.28;4943400;28;20043;-67
2024/01/21 02:38:48;;;;;;;6.05;1.85;;;;;;;-2.16;36.96;102091.69;4935935;28;20038;-67
2024/01/21 02:41:14;;;;;;;4.95;1.38;;;;;;;-2.31;37.23;102084.38;4974173;28;20041;-67
2024/01/21 02:43:39;;;;;;;3.03;1.52;;;;;;;-2.13;36.99;102087.56;4937069;28;20035;-69
2024/01/21 02:46:05;;;;;;;6.97;1.65;;;;;;;-2.40;36.93;102077.28;4943096;28;20644;-66
2024/01/21 02:48:30;;;;;;;5.20;2.10;;;;;;;-2.18;37.69;102080.53;4943007;28;20039;-69
2024/01/21 02:50:56;;;;;;;6.18;2.03;;;;;;;-2.32;36.80;102069.84;4941900;28;20739;-72
2024/01/21 02:53:21;;;;;;;4.18;1.77;;;;;;;-2.24;36.69;102063.28;4947250;28;20047;-73
2024/01/21 02:55:47;;;;;;;2.47;0.90;;;;;;;-2.05;35.78;102063.03;4954804;28;20054;-69
2024/01/21 02:58:12;;;;;;;2.17;1.05;;;;;;;-2.09;35.76;102042.41;4970699;28;20107;-71
2024/01/21 03:00:37;;;;;;;2.13;0.80;;;;;;;-1.71;35.42;102040.13;4943831;28;20030;-72
2024/01/21 03:03:03;;;;;;;2.17;1.00;;;;;;;-2.27;36.14;102048.72;4948088;28;20039;-72
2024/01/21 03:05:29;;;;;;;1.77;0.82;;;;;;;-1.95;35.46;102035.16;4955121;28;20035;-72
2024/01/21 03:07:54;;;;;;;4.22;1.30;;;;;;;-1.79;35.40;102027.09;4945277;28;20524;-73
2024/01/21 03:10:20;;;;;;;5.15;1.63;;;;;;;-2.03;35.79;102027.22;4976914;28;20050;-72
2024/01/21 03:12:45;;;;;;;1.98;0.60;;;;;;;-2.43;35.93;102037.06;4926763;28;20046;-71
2024/01/21 03:15:11;;;;;;;3.60;1.13;;;;;;;-1.95;35.59;102032.59;4969351;28;20066;-73
2024/01/21 03:17:36;;;;;;;3.33;1.27;;;;;;;-2.41;35.44;102029.44;4931394;28;20106;-72
2024/01/21 03:20:06;;;;;;;2.30;0.70;;;;;;;-2.64;35.99;102034.69;4879153;28;20050;-72
2024/01/21 03:22:32;;;;;;;3.92;0.75;;;;;;;-1.84;34.96;102024.41;4858725;28;20324;-69
2024/01/21 03:24:58;;;;;;;2.38;1.23;;;;;;;-1.61;34.55;102011.38;4875357;28;21671;-68
2024/01/21 03:27:24;;;;;;;3.30;1.23;;;;;;;-1.62;34.02;102005.41;4876390;28;20964;-69
2024/01/21 03:29:50;;;;;;;2.53;1.13;;;;;;;-1.62;34.20;102004.50;4871786;28;20236;-71
2024/01/21 03:32:16;;;;;;;2.38;1.10;;;;;;;-1.67;34.16;102001.81;4936313;28;20035;-70
2024/01/21 03:34:43;;;;;;;1.73;0.47;;;;;;;-1.72;34.34;102010.22;4939190;28;20062;-71
2024/01/21 03:37:09;;;;;;;2.80;1.05;;;;;;;-1.82;34.45;101999.69;4947723;28;20068;-70
2024/01/21 03:39:34;;;;;;;1.48;0.52;;;;;;;-1.98;34.35;101992.34;4945043;28;20498;-70
2024/01/21 03:42:00;;;;;;;2.30;0.50;;;;;;;-1.92;34.68;101984.84;4932347;28;20043;-71
2024/01/21 03:44:25;;;;;;;2.20;0.85;;;;;;;-1.50;33.60;101979.22;4939539;28;20035;-71
2024/01/21 03:46:51;;;;;;;2.95;0.77;;;;;;;-1.89;33.96;101973.81;4943362;28;20038;-71
2024/01/21 03:49:16;;;;;;;2.30;0.60;;;;;;;-1.73;33.58;101975.13;4946123;28;20047;-73
2024/01/21 03:51:42;;;;;;;2.03;0.45;;;;;;;-1.54;33.35;101967.13;4933461;28;21747;-71
2024/01/21 03:54:08;;;;;;;1.33;0.52;;;;;;;-1.77;33.26;101963.06;4963910;28;20048;-72
2024/01/21 03:56:33;;;;;;;0.85;0.22;;;;;;;-1.80;34.44;101957.03;4950007;28;20084;-72
2024/01/21 03:58:59;;;;;;;1.35;0.50;;;;;;;-1.65;33.30;101954.00;4943438;28;20264;-72
2024/01/21 04:01:24;;;;;;;2.00;0.40;;;;;;;-1.41;33.22;101952.97;4946095;28;20449;-72
2024/01/21 04:03:50;;;;;;;1.98;0.50;;;;;;;-1.76;33.19;101951.97;4938124;28;20031;-72
2024/01/21 04:06:16;;;;;;;1.60;0.28;;;;;;;-1.56;32.83;101942.28;4950391;28;20027;-70
2024/01/21 04:08:41;;;;;;;3.05;0.45;;;;;;;-1.46;33.03;101944.28;4977673;28;20512;-69
2024/01/21 04:11:07;;;;;;;4.85;0.75;;;;;;;-1.41;32.88;101933.31;4942608;28;20126;-71
2024/01/21 04:13:32;;;;;;;2.45;0.68;;;;;;;-1.44;32.70;101929.78;4945333;28;20088;-68
2024/01/21 04:15:59;;;;;;;1.27;0.40;;;;;;;-1.42;33.30;101921.34;4944021;28;20042;-69
2024/01/21 04:18:24;;;;;;;2.75;0.30;;;;;;;-1.09;32.35;101920.44;4946178;28;20026;-68
2024/01/21 04:20:50;;;;;;;0.65;0.32;;;;;;;-1.40;32.93;101904.28;4932853;28;20717;-68
2024/01/21 04:23:15;;;;;;;1.42;0.30;;;;;;;-1.50;32.79;101897.16;4940895;28;20150;-69
2024/01/21 04:25:41;;;;;;;0.65;0.30;;;;;;;-1.73;32.68;101896.56;4949782;28;20046;-69
2024/01/21 04:28:06;;;;;;;0.73;0.30;;;;;;;-1.25;31.67;101885.84;4939720;28;20632;-70
2024/01/21 04:30:32;;;;;;;0.55;0.28;;;;;;;-1.08;31.47;101885.41;4935189;28;20142;-66
2024/01/21 04:32:58;;;;;;;4.05;0.50;;;;;;;-1.07;31.63;101885.44;4869154;28;20137;-67
2024/01/21 04:35:24;;;;;;;1.95;0.20;;;;;;;-1.32;31.66;101880.53;4885150;28;21272;-66
2024/01/21 04:37:50;;;;;;;1.27;0.68;;;;;;;-1.08;31.28;101870.88;4874962;28;20062;-67
2024/01/21 04:40:15;;;;;;;1.60;0.28;;;;;;;-1.75;32.23;101862.31;4827589;28;20474;-68
2024/01/21 04:42:41;;;;;;;1.42;0.20;;;;;;;-1.05;31.45;101857.28;4829463;28;20050;-67
2024/01/21 04:45:07;;;;;;;1.40;0.30;;;;;;;-0.95;30.77;101845.53;4834306;28;20279;-66
2024/01/21 04:47:33;;;;;;;1.02;0.30;;;;;;;-1.07;30.67;101846.94;4846892;28;20551;-68
2024/01/21 04:49:59;;;;;;;1.33;0.17;;;;;;;-1.72;30.98;101838.47;4871988;28;20345;-69
2024/01/21 04:52:26;;;;;;;1.02;0.40;;;;;;;-0.91;30.99;101837.94;4912910;28;20473;-71
2024/01/21 04:54:52;;;;;;;0.98;0.22;;;;;;;-1.17;30.91;101820.19;4928348;28;20118;-70
2024/01/21 04:57:17;;;;;;;0.45;0.10;;;;;;;-0.84;31.11;101814.16;4935415;28;20043;-70
2024/01/21 04:59:42;;;;;;;1.52;0.32;;;;;;;-0.87;30.28;101814.06;4940793;28;20049;-70
2024/01/21 05:02:08;;;;;;;0.85;0.57;;;;;;;-1.41;30.35;101799.94;4938813;28;21496;-73
2024/01/21 05:04:33;;;;;;;3.90;0.20;;;;;;;-1.32;30.78;101795.88;4975151;28;20061;-69
2024/01/21 05:06:59;;;;;;;1.85;0.68;;;;;;;-0.71;30.54;101788.75;4959952;28;20824;-72
2024/01/21 05:09:25;;;;;;;0.75;0.20;;;;;;;-1.09;30.07;101769.06;4942620;28;20042;-70
2024/01/21 05:11:50;;;;;;;2.22;0.30;;;;;;;-0.97;30.13;101766.81;4942256;28;20039;-69
2024/01/21 05:14:16;;;;;;;1.08;0.20;;;;;;;-1.05;30.52;101762.34;4964026;28;20047;-71
2024/01/21 05:16:42;;;;;;;0.80;0.20;;;;;;;-0.99;30.22;101753.06;4943881;28;20027;-70
2024/01/21 05:19:07;;;;;;;0.73;0.25;;;;;;;-1.39;30.15;101752.13;4929138;28;20511;-71
2024/01/21 05:21:33;;;;;;;1.23;0.10;;;;;;;-1.08;29.91;101760.53;4945099;28;20059;-70
2024/01/21 05:23:58;;;;;;;1.02;0.35;;;;;;;-1.15;30.06;101745.84;4940424;28;20030;-71
2024/01/21 05:26:24;;;;;;;0.70;0.10;;;;;;;-0.95;30.97;101748.91;4940693;28;20445;-70
2024/01/21 05:28:49;;;;;;;0.68;0.28;;;;;;;-0.72;30.32;101736.53;4946676;28;20042;-69
2024/01/21 05:31:15;;;;;;;1.55;0.17;;;;;;;-1.43;30.69;101740.06;4946014;28;20147;-69
2024/01/21 05:33:40;;;;;;;1.05;0.10;;;;;;;-0.80;30.46;101718.38;4948231;28;20554;-71
2024/01/21 05:36:06;;;;;;;1.20;0.30;;;;;;;-1.09;30.42;101715.19;4931472;28;20370;-70
2024/01/21 05:38:32;;;;;;;2.30;0.13;;;;;;;-0.88;30.55;101708.81;4940041;28;20019;-69
2024/01/21 05:40:58;;;;;;;1.60;0.32;;;;;;;-0.91;30.89;101719.88;4935574;28;20169;-69
2024/01/21 05:43:23;;;;;;;0.60;0.25;;;;;;;-1.01;30.98;101713.69;4960690;28;20121;-69
2024/01/21 05:45:49;;;;;;;0.47;0.10;;;;;;;-1.04;31.06;101707.59;4913808;28;20071;-71
2024/01/21 05:48:14;;;;;;;1.25;0.20;;;;;;;-0.92;31.05;101712.16;4921790;28;21263;-69
2024/01/21 05:50:40;;;;;;;2.40;0.10;;;;;;;-1.27;31.25;101710.50;4917485;28;20047;-69
2024/01/21 05:53:06;;;;;;;1.15;0.15;;;;;;;-1.20;31.51;101711.50;4920343;28;20057;-70
2024/01/21 05:55:32;;;;;;;1.08;0.20;;;;;;;-0.89;30.92;101712.22;4971777;28;20131;-71
2024/01/21 05:57:59;;;;;;;0.68;0.20;;;;;;;-1.36;31.52;101710.31;4970520;28;20037;-68
2024/01/21 06:00:24;;;;;;;1.50;0.45;;;;;;;-1.02;30.79;101717.09;4943993;28;20741;-70
2024/01/21 06:02:53;;;;;;;1.92;0.20;;;;;;;-0.86;30.73;101702.00;4944824;28;20135;-69
2024/01/21 06:05:20;;;;;;;2.53;0.10;;;;;;;-1.11;30.90;101700.59;4951665;28;20039;-69
2024/01/21 06:07:46;;;;;;;2.50;0.20;;;;;;;-1.20;30.78;101697.00;4973896;28;20045;-69
2024/01/21 06:10:12;;;;;;;0.45;0.10;;;;;;;-1.11;29.75;101672.38;4937189;28;20051;-69
2024/01/21 06:12:37;;;;;;;0.65;0.10;;;;;;;-0.76;29.78;101668.00;4940968;28;20042;-65
2024/01/21 06:15:04;;;;;;;0.90;0.30;;;;;;;-1.08;29.99;101657.91;4934269;28;20062;-65
2024/01/21 06:17:29;;;;;;;2.03;0.30;;;;;;;-0.66;29.71;101644.25;4973876;28;20502;-65
2024/01/21 06:19:55;;;;;;;0.95;0.30;;;;;;;-1.13;30.73;101649.22;4932737;28;20122;-65
2024/01/21 06:22:20;;;;;;;1.13;0.25;;;;;;;-0.83;29.83;101630.22;4897969;28;20031;-63
2024/01/21 06:24:46;;;;;;;2.70;0.40;;;;;;;-0.71;30.04;101645.81;4891420;28;20817;-64
2024/01/21 06:27:12;;;;;;;1.38;0.22;;;;;;;-1.16;30.29;101651.75;4882297;28;20085;-64
2024/01/21 06:29:37;;;;;;;1.08;0.28;;;;;;;-1.18;30.83;101661.09;4915746;28;20242;-69
2024/01/21 06:32:03;;;;;;;0.65;0.30;;;;;;;-1.12;31.17;101648.41;4873422;28;20814;-71
2024/01/21 06:34:28;;;;;;;0.75;0.20;;;;;;;-0.85;30.07;101640.44;4916343;28;20679;-72
2024/01/21 06:36:54;;;;;;;1.00;0.17;;;;;;;-0.80;30.03;101620.84;4919314;28;20126;-71
2024/01/21 06:39:19;;;;;;;1.90;0.40;;;;;;;-0.84;30.36;101628.47;4912795;28;20382;-71
2024/01/21 06:41:45;;;;;;;0.77;0.20;;;;;;;-0.89;30.72;101617.25;4847791;28;20434;-68
2024/01/21 06:44:11;;;;;;;0.60;0.10;;;;;;;-1.27;31.05;101630.13;4868420;28;20563;-70
2024/01/21 06:46:37;;;;;;;0.60;0.20;;;;;;;-1.32;30.62;101613.78;4861174;28;20965;-70
2024/01/21 06:49:03;;;;;;;2.50;0.30;;;;;;;-0.90;30.40;101607.84;4876159;28;20231;-68
2024/01/21 06:51:42;;;;;;;0.60;0.17;;;;;;;-1.05;30.62;101604.13;4863220;28;20297;-68
2024/01/21 06:54:08;;;;;;;3.53;0.30;;;;;;;-0.61;30.39;101581.00;4839042;28;20047;-69
2024/01/21 06:56:33;;;;;;;1.23;0.17;;;;;;;-0.74;30.24;101579.03;4943151;28;20034;-70
2024/01/21 06:58:59;;;;;;;1.63;0.20;;;;;;;-0.85;30.54;101560.88;4940226;28;20043;-71
2024/01/21 07:01:24;;;;;;;0.47;0.10;;;;;;;-0.99;30.33;101567.47;4935879;28;20070;-71
2024/01/21 07:03:50;;;;;;;2.10;0.28;;;;;;;-1.07;30.56;101584.38;4947304;28;20034;-70
2024/01/21 07:06:15;;;;;;;0.50;0.20;;;;;;;-1.09;30.66;101599.72;4937786;28;20062;-71
2024/01/21 07:08:41;;;;;;;1.35;0.22;;;;;;;-0.85;30.66;101613.91;4948813;28;20572;-74
2024/01/21 07:11:08;;;;;;;2.42;0.30;;;;;;;-0.74;30.51;101594.44;4938744;28;20655;-70
2024/01/21 07:13:33;;;;;;;2.55;0.20;;;;;;;-0.74;30.16;101581.59;4946250;28;20035;-72
2024/01/21 07:15:59;;;;;;;1.35;0.25;;;;;;;-0.37;29.95;101569.38;4973211;28;20043;-68
2024/01/21 07:18:25;;;;;;;1.38;0.28;;;;;;;-0.37;30.04;101584.81;4939314;28;21216;-69
2024/01/21 07:20:50;;;;;;;1.92;0.20;;;;;;;-0.77;30.36;101589.25;4941724;28;20063;-68
2024/01/21 07:23:16;;;;;;;2.35;0.32;;;;;;;-0.39;30.41;101610.47;4937600;28;20043;-68
2024/01/21 07:25:42;;;;;;;2.45;0.43;;;;;;;-0.73;30.86;101605.56;4942794;28;20506;-68
2024/01/21 07:28:07;;;;;;;1.02;0.40;;;;;;;-0.65;30.15;101597.16;4967749;28;20138;-67
2024/01/21 07:30:33;;;;;;;3.78;0.50;;;;;;;-0.29;30.40;101588.38;4938922;28;20043;-66
2024/01/21 07:32:58;;;;;;;1.52;0.20;;;;;;;-0.68;31.13;101585.97;4937493;28;20063;-67
2024/01/21 07:35:24;;;;;;;0.45;0.20;;;;;;;-0.51;29.89;101558.03;4967434;28;20038;-70
2024/01/21 07:37:49;;;;;;;1.40;0.45;;;;;;;-0.94;30.31;101557.28;4977373;28;20045;-72
2024/01/21 07:40:15;;;;;;;1.50;0.30;;;;;;;-0.60;30.48;101538.19;4932648;28;20914;-70
2024/01/21 07:42:40;;;;;;;3.53;0.40;;;;;;;-1.16;31.31;101528.59;4908641;28;20635;-67
2024/01/21 07:45:07;;;;;;;0.57;0.20;;;;;;;-1.31;31.72;101549.69;4858104;28;20120;-65
2024/01/21 07:47:33;;;;;;;1.27;0.50;;;;;;;-0.96;30.60;101554.66;4827406;28;20121;-66
2024/01/21 07:49:59;;;;;;;1.83;0.30;;;;;;;-0.90;30.67;101518.00;4858430;28;20681;-65
2024/01/21 07:52:25;;;;;;;3.28;0.47;;;;;;;-1.16;30.69;101508.09;4862646;28;29202;-67
2024/01/21 07:54:51;;;;;;;3.13;0.40;;;;;;;-1.33;31.64;101519.72;4843093;28;20046;-72
2024/01/21 07:57:16;;;;;;;2.00;0.63;;;;;;;-1.08;31.45;101514.22;4862593;28;20612;-72
2024/01/21 07:59:43;;;;;;;1.45;0.50;;;;;;;-1.21;31.82;101535.34;4895511;28;20535;-66
2024/01/21 08:02:08;;;;;;;3.38;0.50;;;;;;;-1.07;32.00;101536.47;4890716;28;20054;-65
2024/01/21 08:04:34;;;;;;;3.65;0.60;;;;;;;-0.97;32.01;101525.59;4917671;28;20031;-68
2024/01/21 08:07:00;;;;;;;2.25;0.60;;;;;;;-0.97;31.64;101519.59;4945708;28;20098;-69
2024/01/21 08:09:28;;;;;;;2.50;0.70;;;;;;;-1.51;32.26;101562.13;4941591;28;20133;-66
2024/01/21 08:11:54;;;;;;;1.20;0.32;;;;;;;-1.74;33.07;101533.41;4944389;28;20508;-68
2024/01/21 08:14:19;;;;;;;2.88;0.75;;;;;;;-1.31;33.27;101543.69;4969855;28;20117;-65
2024/01/21 08:16:46;;;;;;;1.88;0.50;;;;;;;-1.32;32.15;101552.25;4947978;28;20050;-66
2024/01/21 08:19:12;;;;;;;1.73;0.40;;;;;;;-0.92;32.99;101550.47;4943141;28;20042;-67
2024/01/21 08:21:37;;;;;;;1.70;0.30;;;;;;;-1.20;32.53;101530.25;4972231;28;20535;-68
2024/01/21 08:24:03;;;;;;;1.40;0.68;;;;;;;-1.52;33.44;101513.38;4944779;28;20059;-68
2024/01/21 08:26:29;;;;;;;2.88;0.70;;;;;;;-1.32;33.58;101518.91;4936819;28;20034;-68
2024/01/21 08:28:55;;;;;;;3.78;0.68;;;;;;;-0.86;33.23;101532.59;4944222;28;20039;-69
2024/01/21 08:31:21;;;;;;;2.05;0.38;;;;;;;-1.83;33.60;101528.94;4969072;28;20125;-70
2024/01/21 08:33:47;;;;;;;1.25;0.65;;;;;;;-1.31;33.07;101536.00;4947136;28;20501;-69
2024/01/21 08:36:12;;;;;;;1.38;0.52;;;;;;;-0.86;32.87;101541.19;4972126;28;20043;-66
2024/01/21 08:38:38;;;;;;;2.80;0.77;;;;;;;-1.91;34.53;101553.56;4925385;28;20081;-69
2024/01/21 08:41:04;;;;;;;1.88;0.63;;;;;;;-1.20;34.04;101537.06;4974441;28;20078;-68
2024/01/21 08:43:30;;;;;;;1.38;0.73;;;;;;;-1.38;34.36;101548.69;4937832;28;20035;-69
2024/01/21 08:45:55;;;;;;;1.52;0.60;;;;;;;-1.56;34.28;101543.19;4943330;28;20451;-69
2024/01/21 08:48:21;;;;;;;2.03;1.10;;;;;;;-0.97;34.01;101576.06;4937760;28;20126;-68
2024/01/21 08:50:49;;;;;;;6.28;0.82;;;;;;;-1.83;34.81;101577.63;4940837;28;20054;-67
2024/01/21 08:53:14;;;;;;;1.70;0.77;;;;;;;-1.27;34.81;101597.66;4946562;28;20050;-67
2024/01/21 08:55:40;;;;;;;2.92;1.13;;;;;;;-1.23;34.59;101598.59;4965292;28;20046;-67
2024/01/21 08:58:06;;;;;;;3.45;1.05;;;;;;;-1.68;35.29;101599.34;4936917;28;20069;-69
2024/01/21 09:00:31;;;;;;;2.05;0.73;;;;;;;-1.66;35.03;101575.47;4933276;28;20046;-66
2024/01/21 09:02:57;;;;;;;4.55;0.95;;;;;;;-1.54;35.64;101586.81;4945312;28;20169;-69
2024/01/21 09:05:23;;;;;;;5.32;0.98;;;;;;;-1.27;35.41;101578.84;4937287;28;20803;-65
2024/01/21 09:07:49;;;;;;;2.50;0.50;;;;;;;-1.23;35.30;101573.78;4938151;28;20054;-64
2024/01/21 09:10:14;;;;;;;2.15;0.60;;;;;;;-0.95;35.15;101578.63;4946600;28;20937;-67
2024/01/21 09:12:40;;;;;;;4.03;0.88;;;;;;;-0.94;35.06;101570.97;4967864;28;20743;-72
2024/01/21 09:15:06;;;;;;;2.22;1.42;;;;;;;-1.28;35.83;101560.03;4938815;28;22363;-66
2024/01/21 09:17:32;;;;;;;2.58;1.08;;;;;;;-1.41;35.37;101548.63;4934639;28;20066;-66
2024/01/21 09:19:58;;;;;;;2.67;0.85;;;;;;;-1.22;35.72;101544.75;4940103;28;21037;-67
2024/01/21 09:22:23;;;;;;;2.72;0.90;;;;;;;-1.03;35.57;101540.88;4938169;28;20389;-66
2024/01/21 09:24:49;;;;;;;5.10;1.10;;;;;;;-1.35;36.10;101541.91;4943368;28;20058;-66
2024/01/21 09:27:15;;;;;;;2.42;1.52;;;;;;;-1.05;35.84;101552.78;4940590;28;20618;-66
2024/01/21 09:29:42;;;;;;;6.05;1.30;;;;;;;-0.92;35.96;101545.34;4933296;28;20680;-66
2024/01/21 09:32:10;;;;;;;5.07;1.55;;;;;;;-1.10;36.05;101540.69;4940767;28;20073;-66
2024/01/21 09:34:39;;;;;;;4.50;1.38;;;;;;;-1.04;35.85;101538.25;4935194;28;20057;-66
2024/01/21 09:37:07;;;;;;;4.13;1.38;;;;;;;-1.39;36.60;101536.72;4942070;28;20105;-66
2024/01/21 09:39:33;;;;;;;5.30;2.17;;;;;;;-1.67;37.17;101534.41;4932780;28;20113;-67
2024/01/21 09:41:59;;;;;;;5.22;1.70;;;;;;;-1.09;36.00;101533.00;4941656;28;20446;-65
2024/01/21 09:44:27;;;;;;;5.10;1.90;;;;;;;-1.49;36.52;101534.78;4947764;28;20043;-66
2024/01/21 09:46:58;;;;;;;12.93;1.85;;;;;;;-0.91;36.57;101539.34;4942183;28;20406;-66
2024/01/21 09:49:25;;;;;;;3.10;1.52;;;;;;;-1.49;37.31;101544.19;4931982;28;20070;-67
2024/01/21 09:51:51;;;;;;;3.58;1.60;;;;;;;-0.94;36.77;101547.88;4941526;28;20042;-67
2024/01/21 09:54:19;;;;;;;4.85;1.70;;;;;;;-1.01;37.35;101554.59;4904847;28;20777;-66
2024/01/21 09:56:45;;;;;;;3.95;1.80;;;;;;;-0.39;36.40;101553.97;4868504;28;20652;-67
2024/01/21 09:59:12;;;;;;;4.20;1.67;;;;;;;-0.74;37.02;101550.81;4874902;28;20050;-66
2024/01/21 10:01:40;;;;;;;5.15;2.17;;;;;;;-0.83;37.03;101540.38;4844577;28;20161;-66
2024/01/21 10:04:13;;;;;;;5.65;2.58;;;;;;;-1.33;37.95;101545.34;4843909;28;20539;-65
2024/01/21 10:06:40;;;;;;;4.28;1.80;;;;;;;-1.33;38.72;101547.94;4882385;28;20026;-68
2024/01/21 10:09:16;;;;;;;4.97;2.33;;;;;;;-1.11;38.70;101521.84;4929404;28;20043;-68
2024/01/21 10:11:42;;;;;;;6.25;2.40;;;;;;;-0.72;37.96;101544.00;4945402;28;20070;-68
2024/01/21 10:14:08;;;;;;;5.15;2.53;;;;;;;-0.51;37.85;101525.50;4926934;28;20073;-69
2024/01/21 10:16:34;;;;;;;4.63;2.50;;;;;;;-1.11;38.88;101559.47;4932012;28;20510;-67
2024/01/21 10:19:04;;;;;;;4.80;2.25;;;;;;;-1.12;39.21;101538.09;4939932;28;20389;-68
2024/01/21 10:21:30;;;;;;;4.30;2.15;;;;;;;-0.65;38.91;101556.09;4931680;28;20188;-66
2024/01/21 10:23:55;;;;;;;4.88;1.80;;;;;;;-1.06;39.64;101548.50;4939381;28;20035;-68
2024/01/21 10:26:21;;;;;;;4.70;1.85;;;;;;;-0.64;39.06;101559.50;4941971;28;20070;-68
2024/01/21 10:28:47;;;;;;;5.70;2.55;;;;;;;-0.91;40.13;101562.47;4934811;28;20587;-68
2024/01/21 10:31:13;;;;;;;3.90;2.30;;;;;;;-1.01;40.54;101553.72;4940445;28;20732;-68
2024/01/21 10:33:43;;;;;;;4.93;2.28;;;;;;;-1.31;41.31;101556.50;4966531;28;20432;-67
2024/01/21 10:36:11;;;;;;;5.50;1.92;;;;;;;-1.14;41.67;101557.72;4938995;28;20051;-67
2024/01/21 10:38:51;;;;;;;4.45;2.22;;;;;;;-1.77;42.90;101555.56;4966210;28;20794;-67
2024/01/21 10:41:28;;;;;;;6.85;3.00;;;;;;;-1.15;42.17;101553.44;4973810;28;20049;-67
2024/01/21 10:43:56;;;;;;;5.20;2.65;;;;;;;-1.52;42.64;101539.88;4938132;28;20134;-67
2024/01/21 10:46:25;;;;;;;4.63;2.28;;;;;;;-1.14;42.88;101552.59;4945364;28;20027;-68
2024/01/21 10:48:58;;;;;;;5.22;2.60;;;;;;;-1.18;43.13;101571.31;4931879;28;20862;-68
2024/01/21 10:51:23;;;;;;;5.95;2.85;;;;;;;-1.45;43.61;101546.84;4939744;28;20046;-68
2024/01/21 10:53:53;;;;;;;7.65;3.03;;;;;;;-0.98;43.46;101543.50;4933012;28;20501;-69
2024/01/21 10:56:20;;;;;;;6.30;2.00;;;;;;;-0.91;43.20;101519.69;4940130;28;20795;-69
2024/01/21 10:58:49;;;;;;;6.13;2.10;;;;;;;-1.01;44.32;101507.53;4933550;28;20368;-69
2024/01/21 11:01:16;;;;;;;5.03;2.28;;;;;;;-0.43;43.14;101507.66;4940785;28;20509;-69
2024/01/21 11:03:43;;;;;;;6.80;2.97;;;;;;;-0.89;43.56;101506.88;4867720;28;20046;-68
2024/01/21 11:06:10;;;;;;;5.63;2.78;;;;;;;-0.39;42.89;101509.44;4839085;28;20301;-67
2024/01/21 11:08:37;;;;;;;6.45;3.03;;;;;;;-0.62;43.40;101506.50;4841567;28;20368;-67
2024/01/21 11:11:08;;;;;;;6.00;3.13;;;;;;;-0.67;43.76;101503.00;4853649;28;20244;-67
2024/01/21 11:13:42;;;;;;;5.15;2.13;;;;;;;-1.03;44.26;101509.22;4874870;28;20351;-69
2024/01/21 11:16:27;;;;;;;8.23;3.20;;;;;;;-0.73;43.73;101503.75;4850777;28;20056;-68
2024/01/21 11:18:53;;;;;;;5.78;2.30;;;;;;;-0.83;44.10;101520.69;4873717;28;20411;-68